createdAt,value
2019-06-20T00:00:31.698Z,18.70
2019-06-20T00:02:59.353Z,18.80
2019-06-20T00:05:28.045Z,18.80
2019-06-20T00:07:55.687Z,18.60
2019-06-20T00:10:23.411Z,18.40
2019-06-20T00:13:00.046Z,18.50
2019-06-20T00:15:21.400Z,18.40
2019-06-20T00:17:49.046Z,18.30
2019-06-20T00:20:16.721Z,18.20
2019-06-20T00:22:44.356Z,18.40
2019-06-20T00:25:12.092Z,18.40
2019-06-20T00:27:39.731Z,18.40
2019-06-20T00:30:07.751Z,18.30
2019-06-20T00:32:35.391Z,18.20
2019-06-20T00:35:03.501Z,18.20
2019-06-20T00:37:31.134Z,18.30
2019-06-20T00:39:58.777Z,18.10
2019-06-20T00:42:26.404Z,17.90
2019-06-20T00:44:54.056Z,17.70
2019-06-20T00:47:21.696Z,17.70
2019-06-20T00:49:49.355Z,17.50
2019-06-20T00:52:16.993Z,17.50
2019-06-20T00:54:44.652Z,17.70
2019-06-20T00:57:12.315Z,17.90
2019-06-20T00:59:40.033Z,18.30
2019-06-20T01:02:07.783Z,19.00
2019-06-20T01:04:35.456Z,19.60
2019-06-20T01:07:03.141Z,19.90
2019-06-20T01:09:30.800Z,20.20
2019-06-20T01:11:58.460Z,20.10
2019-06-20T01:14:26.115Z,19.60
2019-06-20T01:16:53.925Z,19.00
2019-06-20T01:19:21.619Z,18.60
2019-06-20T01:32:00.367Z,17.30
2019-06-20T01:34:28.214Z,17.10
2019-06-20T01:36:56.037Z,17.00
2019-06-20T01:39:23.817Z,17.00
2019-06-20T01:41:51.729Z,16.90
2019-06-20T01:44:20.446Z,16.90
2019-06-20T01:46:50.838Z,16.80
2019-06-20T01:49:18.604Z,16.80
2019-06-20T01:51:46.379Z,16.90
2019-06-20T01:54:14.105Z,16.80
2019-06-20T01:56:41.902Z,16.90
2019-06-20T01:59:09.601Z,16.90
2019-06-20T02:01:37.400Z,17.00
2019-06-20T02:04:05.145Z,17.00
2019-06-20T02:06:32.988Z,17.10
2019-06-20T02:09:00.706Z,17.10
2019-06-20T02:11:28.525Z,17.20
2019-06-20T02:14:06.743Z,17.20
2019-06-20T02:16:25.714Z,17.20
2019-06-20T02:18:53.509Z,17.30
2019-06-20T02:21:21.278Z,17.10
2019-06-20T02:23:48.989Z,17.00
2019-06-20T02:26:16.717Z,17.00
2019-06-20T02:28:44.410Z,17.00
2019-06-20T02:31:12.127Z,17.20
2019-06-20T02:33:40.803Z,17.20
2019-06-20T02:36:08.508Z,17.20
2019-06-20T02:38:36.290Z,17.30
2019-06-20T02:41:04.210Z,17.20
2019-06-20T02:43:32.041Z,17.30
2019-06-20T02:45:59.826Z,17.20
2019-06-20T02:48:27.492Z,17.30
2019-06-20T02:50:55.272Z,17.20
2019-06-20T02:53:43.778Z,17.20
2019-06-20T02:56:11.443Z,17.10
2019-06-20T02:58:39.336Z,17.10
2019-06-20T03:01:07.033Z,17.10
2019-06-20T03:03:34.747Z,17.10
2019-06-20T03:06:02.441Z,17.00
2019-06-20T03:08:30.179Z,17.00
2019-06-20T03:10:58.015Z,17.00
2019-06-20T03:13:25.731Z,17.00
2019-06-20T03:15:53.456Z,17.10
2019-06-20T03:18:21.164Z,17.10
2019-06-20T03:20:48.865Z,17.10
2019-06-20T03:23:16.558Z,17.10
2019-06-20T03:25:44.229Z,17.10
2019-06-20T03:28:11.878Z,17.10
2019-06-20T03:30:39.539Z,17.20
2019-06-20T03:33:07.212Z,17.20
2019-06-20T03:35:34.963Z,17.20
2019-06-20T03:38:02.765Z,17.20
2019-06-20T03:40:30.507Z,17.30
2019-06-20T03:42:58.184Z,17.30
2019-06-20T03:45:26.859Z,17.30
2019-06-20T03:47:54.524Z,17.40
2019-06-20T03:50:22.191Z,17.30
2019-06-20T03:52:52.079Z,17.30
2019-06-20T03:55:19.834Z,17.30
2019-06-20T03:57:47.540Z,17.40
2019-06-20T04:00:15.446Z,17.30
2019-06-20T04:02:43.118Z,17.30
2019-06-20T04:05:10.795Z,17.30
2019-06-20T04:07:38.524Z,17.40
2019-06-20T04:12:33.564Z,17.40
2019-06-20T04:15:14.955Z,17.40
2019-06-20T04:17:30.894Z,17.30
2019-06-20T04:19:58.598Z,17.30
2019-06-20T04:22:26.300Z,17.30
2019-06-20T04:24:53.959Z,17.30
2019-06-20T04:27:21.640Z,17.30
2019-06-20T04:29:49.370Z,17.30
2019-06-20T04:32:17.029Z,17.20
2019-06-20T04:34:44.699Z,17.20
2019-06-20T04:37:12.419Z,17.20
2019-06-20T04:39:40.097Z,17.30
2019-06-20T04:42:09.417Z,17.30
2019-06-20T04:44:38.057Z,17.40
2019-06-20T04:47:10.065Z,17.30
2019-06-20T04:49:37.746Z,17.40
2019-06-20T04:52:05.523Z,17.40
2019-06-20T04:54:34.138Z,17.40
2019-06-20T04:57:01.883Z,17.50
2019-06-20T04:59:29.591Z,17.50
2019-06-20T05:01:57.271Z,17.60
2019-06-20T05:04:31.857Z,17.60
2019-06-20T05:07:01.133Z,17.70
2019-06-20T05:09:28.803Z,17.70
2019-06-20T05:12:15.879Z,17.60
2019-06-20T05:14:43.611Z,17.70
2019-06-20T05:17:11.341Z,17.80
2019-06-20T05:19:39.749Z,17.90
2019-06-20T05:24:54.356Z,18.00
2019-06-20T05:27:22.293Z,18.10
2019-06-20T05:29:49.986Z,18.10
2019-06-20T05:34:47.545Z,18.30
2019-06-20T05:37:15.204Z,18.30
2019-06-20T05:39:42.938Z,18.40
2019-06-20T05:42:10.660Z,18.60
2019-06-20T05:44:38.333Z,18.70
2019-06-20T05:47:12.676Z,18.80
2019-06-20T05:49:35.357Z,19.10
2019-06-20T05:52:03.005Z,19.10
2019-06-20T05:54:30.712Z,19.00
2019-06-20T05:56:58.353Z,18.80
2019-06-20T05:59:26.003Z,18.80
2019-06-20T06:01:56.250Z,18.80
2019-06-20T06:04:23.018Z,18.80
2019-06-20T06:06:50.676Z,19.00
2019-06-20T06:09:18.319Z,19.20
2019-06-20T06:11:45.972Z,19.40
2019-06-20T06:14:33.024Z,19.50
2019-06-20T06:17:00.664Z,19.50
2019-06-20T06:19:28.317Z,19.60
2019-06-20T06:21:55.978Z,19.60
2019-06-20T06:24:23.695Z,19.50
2019-06-20T06:26:51.345Z,19.40
2019-06-20T06:29:19.011Z,19.50
2019-06-20T06:31:46.652Z,19.50
2019-06-20T06:34:29.802Z,19.60
2019-06-20T06:36:57.491Z,19.70
2019-06-20T06:41:52.602Z,20.10
2019-06-20T06:44:20.369Z,20.30
2019-06-20T06:47:07.408Z,20.50
2019-06-20T06:49:35.137Z,20.40
2019-06-20T06:52:02.781Z,20.50
2019-06-20T06:54:30.438Z,20.30
2019-06-20T06:56:58.094Z,20.20
2019-06-20T06:59:25.778Z,20.10
2019-06-20T07:01:53.517Z,20.00
2019-06-20T07:04:21.191Z,20.00
2019-06-20T07:06:48.837Z,19.80
2019-06-20T07:09:16.503Z,19.90
2019-06-20T07:14:31.090Z,20.00
2019-06-20T07:17:00.582Z,19.90
2019-06-20T07:19:28.275Z,19.90
2019-06-20T07:21:55.944Z,20.10
2019-06-20T07:24:24.706Z,20.20
2019-06-20T07:26:52.452Z,20.40
2019-06-20T07:29:20.148Z,20.60
2019-06-20T07:31:47.859Z,20.60
2019-06-20T07:34:15.609Z,20.50
2019-06-20T07:36:43.297Z,20.60
2019-06-20T07:39:11.073Z,20.50
2019-06-20T07:41:38.788Z,20.70
2019-06-20T07:44:06.526Z,20.50
2019-06-20T07:46:34.227Z,20.50
2019-06-20T07:49:01.914Z,20.70
2019-06-20T07:51:29.612Z,21.20
2019-06-20T07:53:57.388Z,21.30
2019-06-20T07:56:25.124Z,21.10
2019-06-20T07:58:52.822Z,21.30
2019-06-20T08:01:20.510Z,21.40
2019-06-20T08:03:48.209Z,21.40
2019-06-20T08:06:15.869Z,21.10
2019-06-20T08:08:43.536Z,20.90
2019-06-20T08:11:11.286Z,21.30
2019-06-20T08:13:39.027Z,21.20
2019-06-20T08:16:06.823Z,21.40
2019-06-20T08:18:34.499Z,21.70
2019-06-20T08:21:02.278Z,21.70
2019-06-20T08:23:30.073Z,21.70
2019-06-20T08:25:59.254Z,21.90
2019-06-20T08:28:27.244Z,22.00
2019-06-20T08:30:56.057Z,22.10
2019-06-20T08:33:24.361Z,22.20
2019-06-20T08:35:52.179Z,22.40
2019-06-20T08:38:20.013Z,22.20
2019-06-20T08:40:47.717Z,22.30
2019-06-20T08:43:15.481Z,22.00
2019-06-20T08:45:44.246Z,22.10
2019-06-20T08:48:32.802Z,22.20
2019-06-20T08:51:00.541Z,22.10
2019-06-20T08:53:29.949Z,22.00
2019-06-20T08:55:59.292Z,22.20
2019-06-20T08:58:28.674Z,22.30
2019-06-20T09:00:58.038Z,22.20
2019-06-20T09:03:25.893Z,22.40
2019-06-20T09:05:54.916Z,22.20
2019-06-20T09:08:22.994Z,22.30
2019-06-20T09:10:50.670Z,22.30
2019-06-20T09:13:20.620Z,22.20
2019-06-20T09:15:49.260Z,22.30
2019-06-20T09:18:17.016Z,22.10
2019-06-20T09:20:44.700Z,22.20
2019-06-20T09:23:12.384Z,22.30
2019-06-20T09:25:40.175Z,22.50
2019-06-20T09:28:08.121Z,22.60
2019-06-20T09:36:10.501Z,23.10
2019-06-20T09:38:38.253Z,22.90
2019-06-20T09:41:06.003Z,23.10
2019-06-20T09:43:33.821Z,23.40
2019-06-20T09:46:02.586Z,23.50
2019-06-20T09:48:30.568Z,23.60
2019-06-20T09:50:58.657Z,23.60
2019-06-20T09:53:26.448Z,23.80
2019-06-20T09:55:59.543Z,23.80
2019-06-20T09:58:27.209Z,23.90
2019-06-20T10:00:55.171Z,24.50
2019-06-20T10:03:22.986Z,24.30
2019-06-20T10:05:50.765Z,24.00
2019-06-20T10:08:18.477Z,24.10
2019-06-20T10:10:47.090Z,24.10
2019-06-20T10:13:15.581Z,24.30
2019-06-20T10:15:43.244Z,24.70
2019-06-20T10:18:12.706Z,24.40
2019-06-20T10:20:40.482Z,24.40
2019-06-20T10:23:08.431Z,24.80
2019-06-20T10:28:03.791Z,25.50
2019-06-20T10:32:58.872Z,25.70
2019-06-20T10:35:27.672Z,25.80
2019-06-20T10:37:56.976Z,25.50
2019-06-20T10:40:24.780Z,25.50
2019-06-20T10:42:53.019Z,25.40
2019-06-20T10:45:22.139Z,25.30
2019-06-20T10:47:50.929Z,25.50
2019-06-20T10:50:19.248Z,25.00
2019-06-20T10:52:48.047Z,25.00
2019-06-20T10:55:16.280Z,25.40
2019-06-20T10:57:44.543Z,25.80
2019-06-20T11:00:26.769Z,26.10
2019-06-20T11:02:44.923Z,25.90
2019-06-20T11:05:12.908Z,26.10
2019-06-20T11:07:42.053Z,26.60
2019-06-20T11:10:10.999Z,26.80
2019-06-20T11:12:45.553Z,26.90
2019-06-20T11:15:09.332Z,26.50
2019-06-20T11:17:38.574Z,26.60
2019-06-20T11:20:07.726Z,27.30
2019-06-20T11:22:37.809Z,27.30
2019-06-20T11:25:06.707Z,26.60
2019-06-20T11:27:34.404Z,26.50
2019-06-20T11:30:02.172Z,26.80
2019-06-20T11:32:29.893Z,27.20
2019-06-20T11:34:57.647Z,27.30
2019-06-20T11:37:25.452Z,26.90
2019-06-20T11:47:15.488Z,27.70
2019-06-20T11:49:43.247Z,27.70
2019-06-20T11:52:12.642Z,27.90
2019-06-20T11:54:40.325Z,27.50
2019-06-20T11:57:08.071Z,27.60
2019-06-20T11:59:35.854Z,27.80
2019-06-20T12:02:03.661Z,27.60
2019-06-20T12:06:58.835Z,28.20
2019-06-20T12:09:26.542Z,28.10
2019-06-20T12:14:23.925Z,27.10
2019-06-20T12:16:53.308Z,27.10
2019-06-20T12:19:21.020Z,27.70
2019-06-20T12:21:49.096Z,27.20
2019-06-20T12:24:16.870Z,27.60
2019-06-20T12:26:44.637Z,27.80
2019-06-20T12:31:41.122Z,29.30
2019-06-20T12:34:09.297Z,28.90
2019-06-20T12:36:38.103Z,27.80
2019-06-20T12:41:33.845Z,28.40
2019-06-20T12:44:01.604Z,28.20
2019-06-20T12:48:56.804Z,27.40
2019-06-20T12:51:24.523Z,26.70
2019-06-20T12:53:52.222Z,26.20
2019-06-20T12:56:19.889Z,26.40
2019-06-20T12:58:48.494Z,26.20
2019-06-20T13:01:16.412Z,26.10
2019-06-20T13:03:44.139Z,25.70
2019-06-20T13:06:11.816Z,25.90
2019-06-20T13:08:40.690Z,25.90
2019-06-20T13:11:08.887Z,25.50
2019-06-20T13:13:38.753Z,25.30
2019-06-20T13:16:06.119Z,25.40
2019-06-20T13:18:34.360Z,25.30
2019-06-20T13:21:02.014Z,25.00
2019-06-20T13:23:29.694Z,25.00
2019-06-20T13:28:24.771Z,24.80
2019-06-20T13:30:52.482Z,24.90
2019-06-20T13:33:20.143Z,24.80
2019-06-20T13:35:48.725Z,24.70
2019-06-20T13:38:17.600Z,24.60
2019-06-20T13:43:13.148Z,24.40
2019-06-20T13:45:42.278Z,24.50
2019-06-20T13:48:10.019Z,24.70
2019-06-20T13:50:38.676Z,24.90
2019-06-20T13:53:07.158Z,25.00
2019-06-20T13:55:34.821Z,25.30
2019-06-20T13:58:02.494Z,25.30
2019-06-20T14:00:30.676Z,25.40
2019-06-20T14:02:58.418Z,25.30
2019-06-20T14:05:26.079Z,25.30
2019-06-20T14:07:55.845Z,25.10
2019-06-20T14:10:23.696Z,25.30
2019-06-20T14:12:51.393Z,25.60
2019-06-20T14:15:19.357Z,25.50
2019-06-20T14:17:47.489Z,25.40
2019-06-20T14:20:15.513Z,25.20
2019-06-20T14:22:43.248Z,25.40
2019-06-20T14:25:11.093Z,25.40
2019-06-20T14:27:38.831Z,25.20
2019-06-20T14:30:07.269Z,24.90
2019-06-20T14:32:34.974Z,24.60
2019-06-20T14:35:02.723Z,24.40
2019-06-20T14:37:30.391Z,24.30
2019-06-20T14:39:59.187Z,24.60
2019-06-20T14:42:27.047Z,24.30
2019-06-20T14:44:55.735Z,24.50
2019-06-20T14:47:23.390Z,24.50
2019-06-20T14:49:51.070Z,24.50
2019-06-20T14:52:18.769Z,24.60
2019-06-20T14:54:47.489Z,24.40
2019-06-20T14:57:15.249Z,24.50
2019-06-20T14:59:43.172Z,24.50
2019-06-20T15:02:12.346Z,24.40
2019-06-20T15:04:40.047Z,24.40
2019-06-20T15:07:07.761Z,24.40
2019-06-20T15:09:35.452Z,24.10
2019-06-20T15:12:03.159Z,23.70
2019-06-20T15:14:30.900Z,23.70
2019-06-20T15:16:58.543Z,23.60
2019-06-20T15:19:26.251Z,23.50
2019-06-20T15:21:54.249Z,23.40
2019-06-20T15:26:50.711Z,23.00
2019-06-20T15:29:18.809Z,22.90
2019-06-20T15:31:47.669Z,22.80
2019-06-20T15:34:15.846Z,22.90
2019-06-20T15:36:43.536Z,23.00
2019-06-20T15:39:11.291Z,22.90
2019-06-20T15:41:38.961Z,22.70
2019-06-20T15:44:06.636Z,22.60
2019-06-20T15:46:34.280Z,22.60
2019-06-20T15:49:15.455Z,22.70
2019-06-20T15:53:58.792Z,22.50
2019-06-20T15:56:26.448Z,22.50
2019-06-20T15:58:54.107Z,22.50
2019-06-20T16:01:21.784Z,22.40
2019-06-20T16:03:49.461Z,22.50
2019-06-20T16:06:17.102Z,22.50
2019-06-20T16:08:44.827Z,22.50
2019-06-20T16:11:12.488Z,22.60
2019-06-20T16:13:40.234Z,22.70
2019-06-20T16:16:08.088Z,22.70
2019-06-20T16:18:35.753Z,22.80
2019-06-20T16:21:03.417Z,22.80
2019-06-20T16:23:31.061Z,22.90
2019-06-20T16:25:58.734Z,22.90
2019-06-20T16:28:26.401Z,22.90
2019-06-20T16:31:07.955Z,23.00
2019-06-20T16:33:25.463Z,22.90
2019-06-20T16:35:52.905Z,23.00
2019-06-20T16:38:20.635Z,23.10
2019-06-20T16:40:48.540Z,23.20
2019-06-20T16:43:16.260Z,23.10
2019-06-20T16:45:44.008Z,22.90
2019-06-20T16:48:11.666Z,22.90
2019-06-20T16:50:39.407Z,23.00
2019-06-20T16:53:07.113Z,22.90
2019-06-20T16:55:34.768Z,22.80
2019-06-20T16:58:02.550Z,22.60
2019-06-20T17:00:32.765Z,22.50
2019-06-20T17:03:00.412Z,22.50
2019-06-20T17:05:28.131Z,22.60
2019-06-20T17:07:55.920Z,22.70
2019-06-20T17:10:23.576Z,22.70
2019-06-20T17:12:51.232Z,22.90
2019-06-20T17:15:19.069Z,23.00
2019-06-20T17:17:46.720Z,22.90
2019-06-20T17:20:14.548Z,22.80
2019-06-20T17:22:42.694Z,22.90
2019-06-20T17:25:10.625Z,22.90
2019-06-20T17:27:38.289Z,23.10
2019-06-20T17:30:08.337Z,23.20
2019-06-20T17:32:36.006Z,23.20
2019-06-20T17:35:05.035Z,23.10
2019-06-20T17:37:32.688Z,23.00
2019-06-20T17:40:00.332Z,22.90
2019-06-20T17:42:28.010Z,22.80
2019-06-20T17:44:55.663Z,22.80
2019-06-20T17:47:23.340Z,22.80
2019-06-20T17:49:50.999Z,22.70
2019-06-20T17:52:18.775Z,22.60
2019-06-20T17:54:47.419Z,22.60
2019-06-20T17:57:15.084Z,22.50
2019-06-20T18:02:10.229Z,22.30
2019-06-20T18:04:37.888Z,22.20
2019-06-20T18:07:05.635Z,22.10
2019-06-20T18:09:33.401Z,22.00
2019-06-20T18:12:01.131Z,21.90
2019-06-20T18:14:28.806Z,21.90
2019-06-20T18:16:56.514Z,21.80
2019-06-20T18:19:24.168Z,21.70
2019-06-20T18:24:19.199Z,21.50
2019-06-20T18:26:46.930Z,21.50
2019-06-20T18:29:14.580Z,21.60
2019-06-20T18:31:42.510Z,21.50
2019-06-20T18:34:10.223Z,21.40
2019-06-20T18:36:37.908Z,21.40
2019-06-20T18:41:32.945Z,21.20
2019-06-20T18:44:00.583Z,21.10
2019-06-20T18:46:28.240Z,21.10
2019-06-20T18:48:55.879Z,21.10
2019-06-20T18:51:23.536Z,21.10
2019-06-20T18:53:51.254Z,21.10
2019-06-20T18:56:18.909Z,20.90
2019-06-20T18:58:46.565Z,20.80
2019-06-20T19:01:14.244Z,20.70
2019-06-20T19:03:41.895Z,20.80
2019-06-20T19:06:09.530Z,20.70
2019-06-20T19:08:37.279Z,20.70
2019-06-20T19:11:04.919Z,20.70
2019-06-20T19:13:32.634Z,20.50
2019-06-20T19:16:00.307Z,20.50
2019-06-20T19:18:28.032Z,20.40
2019-06-20T19:20:55.680Z,20.30
2019-06-20T19:23:23.337Z,20.20
2019-06-20T19:25:50.983Z,20.00
2019-06-20T19:28:18.627Z,19.90
2019-06-20T19:30:47.345Z,19.80
2019-06-20T19:33:15.003Z,19.70
2019-06-20T19:35:42.664Z,19.60
2019-06-20T19:38:10.300Z,19.60
2019-06-20T19:40:39.487Z,19.70
2019-06-20T19:43:07.144Z,19.70
2019-06-20T19:45:34.783Z,19.70
2019-06-20T19:48:02.511Z,19.60
2019-06-20T19:50:30.275Z,19.40
2019-06-20T19:52:58.000Z,19.30
2019-06-20T19:55:25.640Z,19.30
2019-06-20T19:57:53.294Z,19.30
2019-06-20T20:00:21.033Z,19.30
2019-06-20T20:02:48.683Z,19.20
2019-06-20T20:05:19.463Z,19.10
2019-06-20T20:07:45.782Z,18.90
2019-06-20T20:10:13.913Z,18.80
2019-06-20T20:12:41.536Z,18.80
2019-06-20T20:15:10.502Z,18.70
2019-06-20T20:17:38.142Z,18.70
2019-06-20T20:20:06.193Z,18.70
2019-06-20T20:22:34.269Z,18.60
2019-06-20T20:25:01.938Z,18.60
2019-06-20T20:27:29.582Z,18.40
2019-06-20T20:29:57.262Z,18.40
2019-06-20T20:32:24.891Z,18.40
2019-06-20T20:34:53.490Z,18.30
2019-06-20T20:37:21.143Z,18.20
2019-06-20T20:39:48.803Z,18.10
2019-06-20T20:42:17.826Z,18.10
2019-06-20T20:44:45.632Z,18.00
2019-06-20T20:47:13.273Z,18.10
2019-06-20T20:49:40.931Z,18.00
2019-06-20T20:52:08.581Z,18.00
2019-06-20T20:54:36.266Z,18.00
2019-06-20T20:57:03.914Z,17.90
2019-06-20T21:01:58.956Z,17.60
2019-06-20T21:04:26.676Z,17.70
2019-06-20T21:06:54.319Z,17.70
2019-06-20T21:09:22.069Z,17.70
2019-06-20T21:11:49.759Z,17.80
2019-06-20T21:14:17.433Z,17.90
2019-06-20T21:16:45.132Z,18.00
2019-06-20T21:19:12.769Z,18.10
2019-06-20T21:21:40.419Z,18.10
2019-06-20T21:24:08.078Z,18.00
2019-06-20T21:26:48.987Z,18.10
2019-06-20T21:29:05.085Z,18.10
2019-06-20T21:31:32.733Z,18.20
2019-06-20T21:34:00.371Z,18.20
2019-06-20T21:36:28.106Z,18.30
2019-06-20T21:38:55.755Z,18.30
2019-06-20T21:41:23.396Z,18.20
2019-06-20T21:43:51.035Z,18.20
2019-06-20T21:46:18.699Z,18.10
2019-06-20T21:48:46.346Z,17.90
2019-06-20T21:51:14.000Z,17.80
2019-06-20T21:53:41.649Z,17.80
2019-06-20T21:56:09.294Z,17.90
2019-06-20T21:58:37.017Z,18.00
2019-06-20T22:01:04.948Z,18.10
2019-06-20T22:03:32.604Z,18.10
2019-06-20T22:06:00.278Z,18.10
2019-06-20T22:08:27.920Z,17.80
2019-06-20T22:10:55.579Z,17.70
2019-06-20T22:13:23.218Z,17.70
2019-06-20T22:15:50.877Z,17.80
2019-06-20T22:18:18.619Z,17.90
2019-06-20T22:20:46.282Z,18.10
2019-06-20T22:23:13.944Z,18.30
2019-06-20T22:25:41.606Z,18.30
2019-06-20T22:28:09.339Z,18.20
2019-06-20T22:30:47.452Z,18.00
2019-06-20T22:33:15.175Z,18.20
2019-06-20T22:35:45.815Z,18.20
2019-06-20T22:38:13.072Z,18.20
2019-06-20T22:40:40.826Z,18.00
2019-06-20T22:43:08.454Z,18.00
2019-06-20T22:45:36.115Z,17.70
2019-06-20T22:48:04.115Z,17.70
2019-06-20T22:50:31.784Z,17.60
2019-06-20T22:52:59.532Z,17.60
2019-06-20T22:55:27.200Z,17.60
2019-06-20T22:57:54.849Z,17.60
2019-06-20T23:00:22.524Z,17.60
2019-06-20T23:02:50.166Z,17.60
2019-06-20T23:05:18.797Z,17.60
2019-06-20T23:07:46.427Z,17.50
2019-06-20T23:10:14.147Z,17.40
2019-06-20T23:12:41.794Z,17.40
2019-06-20T23:15:09.816Z,17.30
2019-06-20T23:17:37.505Z,17.20
2019-06-20T23:20:06.707Z,17.30
2019-06-20T23:22:34.371Z,17.30
2019-06-20T23:25:02.029Z,17.10
2019-06-20T23:27:29.734Z,17.00
2019-06-20T23:29:57.372Z,16.90
2019-06-20T23:32:25.019Z,16.80
2019-06-20T23:34:53.564Z,16.60
2019-06-20T23:37:21.232Z,16.70
2019-06-20T23:39:48.889Z,16.50
2019-06-20T23:42:16.552Z,16.40
2019-06-20T23:44:44.197Z,16.40
2019-06-20T23:47:11.848Z,16.30
2019-06-20T23:49:39.494Z,16.10
2019-06-20T23:52:11.707Z,16.00
2019-06-20T23:54:39.359Z,15.90
2019-06-20T23:57:07.027Z,15.80
2019-06-20T23:59:34.656Z,15.90
